Hinesville, GA (31310)

8:44 PM EDT on August 30, 2014 (GMT -0400)
Elim / Davenport Acres - Long County | Change Station
CLOSE
Current Station
Personal Weather Station
Location: Ludowici, GA
Elevation: 89 ft
Nearby Weather Stations

Elev 89 ft 31.79 °N, 81.69 °W | Updated 3 seconds ago

Mostly Cloudy
Mostly Cloudy
82.1 °F
Feels Like 89 °F
N
0.0
Wind Variable Wind from SSE
Gusts 0.0 mph

Today
High -- | Low -- °F
--% Chance of Precip.
Yesterday
High -- | Low -- °F
Precip. -- in
7:00 AM 7:52 PM
Waxing Crescent, 26% visible
Pressure 30.09 in
Visibility 10.0 miles
Clouds Mostly Cloudy 10000 ft
Heat Index 89 °F
Dew Point 76 °F
Humidity 81%
Rainfall 0.02 in
Snow Depth Not available.
UV 0 out of 12
Pollen 7.00 out of 12
Air Quality Not available.
Flu Activity Not available.
METAR KLHW 302358Z AUTO 12005KT 10SM BKN100 29/23 A3009 RMK AO2 SLPNO T02870228 10339 20287 53005

More Conditions Fewer Conditions

Pressure 30.09 in
Visibility 10.0 miles
Clouds Mostly Cloudy 10000 ft
Heat Index 89 °F
Dew Point 76 °F
Humidity 81%
Rainfall 0.02 in
Snow Depth Not available.
UV 0 out of 12
Pollen 7.00 out of 12
Air Quality Not available.
Flu Activity Not available.
METAR KLHW 302358Z AUTO 12005KT 10SM BKN100 29/23 A3009 RMK AO2 SLPNO T02870228 10339 20287 53005

More Conditions Fewer Conditions

10-Day Weather Forecast

Almanac

Astronomy

Aug. 30, 2014 Rise Set
Actual Time 7:00 AM EDT 7:52 PM EDT
Civil Twilight 6:35 AM EDT 8:17 PM EDT
Nautical Twilight 6:06 AM EDT 8:47 PM EDT
Astronomical Twilight 5:35 AM EDT 9:17 PM EDT
Moon 11:27 AM EDT (8/30) 10:46 PM EDT (8/30)
Length of Visible Light 13h 42m
Length of Day
12h 52m
Tomorrow will be 1m 51s shorter.
Waxing Crescent, 26% of the Moon is Illuminated
Today
Waxing Crescent
Sep 2
First Quarter
Sep 8
Full
Sep 15
Last Quarter
Sep 24
New

Today's Extremes

State Highs State Lows

Community

WunderPhotos

Upload Photos

1,748,705 photos uploaded!

Nearby

Snow Depth

Station Depth Elevation
No new snow has been reported.

Earthquake Activity

City Distance Mag. Time & Date
No recent earthquake activity has been reported nearby.
Minimum magnitude displayed is 2.5.

Coastal Water Temperatures

Place Temperature
No Stations Reporting

Nearby Weather Stations